KHUT

Hutchinson Regional Airport

Hutchinson, Kansas, USA
METAR KHUT 190452Z AUTO 16008KT 10SM CLR 25/21 A2990 RMK AO2 SLP098 T02500206
Observed Flight Rules
Sep-19 @ 04:52 UTC (32 minutes ago) Visual Flight Rules
Wind Visibility Clouds
160° at 8 knots 10 miles
  • Clear skies
Temperatures Readings
Current 25°C / 77°F
Dewpoint 21°C / 70°F
Humidity 79%
Altimeter 29.9" Hg
Pressure 1009.8 hPa
Elevation 467
METAR KHUT 190452Z AUTO 16008KT 10SM CLR 25/21 A2990 RMK AO2 SLP098 T02500206
Observed Flight Rules
Sep-19 @ 04:52 UTC
(32 minutes ago)
VFR
Wind Visibility
160° at 8 knots 10 miles
Clouds
  • Clear skies
Temperature Dewpoint
25°C / 77°F 21°C / 70°F
Humidity Altimeter Pressure
79% 29.9" Hg 1009.8 hPa